Time;durP1;ratioP1;P1;durP2;ratioP2;P2;SDS_P1;SDS_P2;PMS_P1;PMS_P2;Temp;Humidity;BMP_temperature;BMP_pressure;BME280_temperature;BME280_humidity;BME280_pressure;Samples;Min_cycle;Max_cycle;Signal;HPM_P1;HPM_P2
2023/12/02 00:00:39;;;;;;;10.55;6.60;;;;;;;13.48;77.47;100861.56;5100396;28;20416;-84
2023/12/02 00:03:04;;;;;;;10.65;5.90;;;;;;;13.26;77.77;100826.50;5064295;28;20144;-84
2023/12/02 00:05:30;;;;;;;10.63;6.07;;;;;;;13.49;78.00;100874.78;5080419;28;20753;-84
2023/12/02 00:07:56;;;;;;;10.88;6.28;;;;;;;13.06;77.75;100802.03;5085787;28;20047;-85
2023/12/02 00:10:21;;;;;;;10.15;6.00;;;;;;;13.29;77.57;100841.50;5072558;28;20023;-84
2023/12/02 00:12:47;;;;;;;10.80;6.35;;;;;;;13.56;77.40;100883.81;5086874;28;20036;-84
2023/12/02 00:15:12;;;;;;;13.85;6.15;;;;;;;13.44;77.26;100842.22;5088378;28;20024;-85
2023/12/02 00:17:39;;;;;;;12.95;5.97;;;;;;;13.22;77.89;100811.47;5087942;28;20040;-85
2023/12/02 00:20:04;;;;;;;;;;;;;;;13.56;77.83;100854.94;5069618;28;20554;-85
2023/12/02 00:22:30;;;;;;;10.77;5.95;;;;;;;13.37;77.91;100837.50;5075446;28;19916;-85
2023/12/02 00:24:56;;;;;;;8.63;5.45;;;;;;;13.37;78.02;100841.00;5089786;28;20489;-85
2023/12/02 00:27:22;;;;;;;8.30;5.80;;;;;;;13.28;78.22;100821.34;5089735;28;20024;-86
2023/12/02 00:29:47;;;;;;;10.55;5.40;;;;;;;13.20;78.08;100798.28;5094369;28;20085;-82
2023/12/02 00:32:13;;;;;;;10.77;5.50;;;;;;;13.56;77.94;100849.69;5075595;28;20093;-82
2023/12/02 00:34:40;;;;;;;10.57;5.47;;;;;;;13.57;77.54;100852.38;5071051;28;20039;-82
2023/12/02 00:37:05;;;;;;;;;;;;;;;13.57;77.60;100856.75;5085198;28;20054;-82
2023/12/02 00:39:31;;;;;;;8.70;5.20;;;;;;;13.52;77.98;100860.88;5087012;28;20552;-81
2023/12/02 00:41:57;;;;;;;8.90;5.38;;;;;;;13.51;77.64;100860.00;5087499;28;20056;-82
2023/12/02 00:44:23;;;;;;;9.57;5.13;;;;;;;13.57;77.53;100856.75;5088300;28;20063;-82
2023/12/02 00:46:49;;;;;;;9.90;5.32;;;;;;;13.50;77.57;100839.81;5083010;28;20032;-82
2023/12/02 00:49:15;;;;;;;9.68;5.30;;;;;;;13.59;77.48;100849.84;5096934;28;20039;-82
2023/12/02 00:51:40;;;;;;;9.75;5.40;;;;;;;13.50;77.00;100833.69;5089355;28;20028;-82
2023/12/02 00:54:06;;;;;;;9.18;5.65;;;;;;;13.44;76.55;100814.25;5078235;28;20085;-82
2023/12/02 00:56:32;;;;;;;9.75;5.22;;;;;;;13.57;76.77;100841.91;5088031;28;20044;-83
2023/12/02 00:58:58;;;;;;;;;;;;;;;13.62;76.87;100839.47;5070911;28;20020;-82
2023/12/02 01:01:23;;;;;;;9.82;5.25;;;;;;;13.59;77.24;100841.97;5106010;28;19916;-82
2023/12/02 01:03:49;;;;;;;7.88;5.00;;;;;;;13.47;77.07;100820.44;5088650;28;20016;-83
2023/12/02 01:06:15;;;;;;;9.02;5.28;;;;;;;13.52;76.88;100811.03;5073921;28;20043;-83
2023/12/02 01:08:40;;;;;;;8.38;5.32;;;;;;;13.58;76.90;100830.56;5097218;28;20020;-83
2023/12/02 01:11:11;;;;;;;9.73;4.82;;;;;;;13.46;76.85;100805.53;5079305;28;20043;-83
2023/12/02 01:13:36;;;;;;;8.60;4.93;;;;;;;13.59;76.96;100837.63;5075061;28;20077;-83
2023/12/02 01:16:02;;;;;;;9.27;5.07;;;;;;;13.44;76.80;100801.13;5072704;28;20656;-83
2023/12/02 01:18:28;;;;;;;6.55;4.82;;;;;;;13.61;76.98;100835.94;5080946;28;20067;-82
2023/12/02 01:20:53;;;;;;;9.10;4.75;;;;;;;13.52;76.88;100816.28;5067707;28;20040;-82
2023/12/02 01:23:19;;;;;;;7.30;4.75;;;;;;;13.48;77.03;100804.75;5083930;28;20047;-85
2023/12/02 01:25:45;;;;;;;8.88;5.00;;;;;;;13.61;76.94;100821.94;5095868;28;20060;-84
2023/12/02 01:28:10;;;;;;;8.82;4.85;;;;;;;13.62;77.14;100821.09;5089690;28;20070;-84
2023/12/02 01:30:36;;;;;;;6.80;4.90;;;;;;;13.48;76.70;100794.25;5086764;28;20028;-84
2023/12/02 01:33:02;;;;;;;8.98;4.97;;;;;;;13.66;76.91;100811.63;5090328;28;20507;-83
2023/12/02 01:35:27;;;;;;;9.18;5.35;;;;;;;13.48;76.90;100782.88;5074288;28;20093;-83
2023/12/02 01:37:53;;;;;;;7.70;4.80;;;;;;;13.58;76.99;100791.19;5089181;28;20036;-83
2023/12/02 01:40:19;;;;;;;8.45;5.20;;;;;;;13.55;76.77;100801.56;5078510;28;20067;-84
2023/12/02 01:42:45;;;;;;;;;;;;;;;13.66;76.79;100798.50;5094822;28;20059;-83
2023/12/02 01:45:11;;;;;;;9.65;4.40;;;;;;;13.62;76.88;100794.84;5107058;28;19908;-84
2023/12/02 01:47:37;;;;;;;7.05;4.40;;;;;;;13.61;77.05;100782.59;5081783;28;20537;-84
2023/12/02 01:50:03;;;;;;;10.10;4.95;;;;;;;13.70;76.51;100796.06;5086395;28;20118;-84
2023/12/02 01:52:29;;;;;;;;;;;;;;;13.70;76.64;100789.94;5084553;28;20040;-83
2023/12/02 01:54:54;;;;;;;7.30;4.80;;;;;;;13.57;76.81;100770.16;5070743;28;19927;-83
2023/12/02 01:57:20;;;;;;;7.00;4.40;;;;;;;13.64;76.75;100790.56;5090735;28;20028;-83
2023/12/02 01:59:53;;;;;;;7.13;4.20;;;;;;;13.65;76.88;100792.34;5091880;28;20032;-84
2023/12/02 02:02:18;;;;;;;8.73;4.68;;;;;;;13.44;77.14;100759.16;5080314;28;20033;-83
2023/12/02 02:04:44;;;;;;;10.45;4.82;;;;;;;13.57;76.66;100764.91;5070893;28;20035;-83
2023/12/02 02:07:10;;;;;;;10.38;5.07;;;;;;;13.69;76.92;100791.66;5084819;28;20586;-83
2023/12/02 02:09:45;;;;;;;8.15;4.75;;;;;;;13.64;76.51;100767.84;5100050;28;20024;-82
2023/12/02 02:12:11;;;;;;;7.40;4.47;;;;;;;13.67;76.78;100781.91;5078654;28;20039;-84
2023/12/02 02:14:37;;;;;;;8.02;4.47;;;;;;;13.68;76.83;100782.00;5090187;28;20020;-82
2023/12/02 02:17:02;;;;;;;6.95;4.47;;;;;;;13.57;76.49;100760.56;5090576;28;20047;-83
2023/12/02 02:19:30;;;;;;;6.53;4.47;;;;;;;13.62;76.52;100766.00;5087386;28;20047;-83
2023/12/02 02:21:56;;;;;;;7.35;4.40;;;;;;;13.59;76.56;100764.16;5095665;28;20020;-83
2023/12/02 02:24:22;;;;;;;9.10;4.55;;;;;;;13.57;76.18;100755.31;5085233;28;20032;-83
2023/12/02 02:26:47;;;;;;;9.68;4.55;;;;;;;13.60;75.98;100760.66;5091358;28;20028;-83
2023/12/02 02:29:13;;;;;;;7.82;4.72;;;;;;;13.68;76.03;100768.88;5084603;28;20430;-83
2023/12/02 02:31:39;;;;;;;7.75;4.75;;;;;;;13.71;75.71;100773.34;5091623;28;20047;-82
2023/12/02 02:34:04;;;;;;;6.97;4.30;;;;;;;13.76;75.69;100780.59;5090185;28;20524;-82
2023/12/02 02:36:30;;;;;;;8.68;4.80;;;;;;;13.59;75.69;100753.66;5082736;28;20051;-82
2023/12/02 02:38:57;;;;;;;7.57;4.88;;;;;;;13.63;75.64;100754.66;5071185;28;20025;-83
2023/12/02 02:41:22;;;;;;;9.30;4.95;;;;;;;13.76;75.42;100764.84;5089423;28;20035;-82
2023/12/02 02:43:48;;;;;;;6.82;4.43;;;;;;;13.59;75.63;100742.25;5080412;28;20062;-82
2023/12/02 02:46:14;;;;;;;5.47;3.95;;;;;;;13.67;75.28;100758.31;5074138;28;20062;-82
2023/12/02 02:48:40;;;;;;;6.85;4.20;;;;;;;13.79;75.40;100783.31;5095357;28;20113;-81
2023/12/02 02:51:06;;;;;;;5.72;4.32;;;;;;;13.63;75.62;100752.03;5089150;27;20554;-84
2023/12/02 02:53:31;;;;;;;8.68;4.50;;;;;;;13.82;75.40;100779.91;5106344;28;20028;-82
2023/12/02 02:55:57;;;;;;;7.35;4.45;;;;;;;13.59;75.57;100743.16;5089567;28;20539;-83
2023/12/02 02:58:23;;;;;;;6.20;4.45;;;;;;;13.76;75.45;100777.06;5059352;28;20024;-82
2023/12/02 03:00:49;;;;;;;8.20;4.38;;;;;;;13.61;75.35;100751.97;5096747;28;20031;-84
2023/12/02 03:03:14;;;;;;;5.45;4.10;;;;;;;13.77;75.05;100779.75;5076272;28;20031;-84
2023/12/02 03:05:40;;;;;;;6.15;3.95;;;;;;;13.79;75.02;100790.31;5078606;28;20037;-83
2023/12/02 03:08:06;;;;;;;7.22;4.53;;;;;;;13.77;75.36;100781.47;5076851;28;20059;-83
2023/12/02 03:10:33;;;;;;;5.90;4.50;;;;;;;13.67;75.17;100767.06;5096223;28;20114;-82
2023/12/02 03:12:59;;;;;;;7.60;4.10;;;;;;;13.71;74.99;100765.47;5095050;28;20034;-82
2023/12/02 03:15:24;;;;;;;6.40;4.35;;;;;;;13.71;75.14;100760.22;5106418;28;20044;-84
2023/12/02 03:17:50;;;;;;;6.53;4.50;;;;;;;13.79;74.95;100787.69;5079525;28;20066;-84
2023/12/02 03:20:17;;;;;;;8.25;4.57;;;;;;;13.74;75.22;100774.38;5086779;28;20127;-84
2023/12/02 03:22:42;;;;;;;8.52;4.35;;;;;;;13.78;75.02;100778.94;5070565;28;20043;-83
2023/12/02 03:25:08;;;;;;;5.75;4.13;;;;;;;13.39;74.91;100723.94;5089819;28;20028;-82
2023/12/02 03:27:34;;;;;;;6.88;4.25;;;;;;;13.56;75.07;100755.25;5079254;28;20032;-83
2023/12/02 03:30:00;;;;;;;6.03;4.13;;;;;;;13.78;75.28;100785.91;5092478;28;20047;-82
2023/12/02 03:32:29;;;;;;;6.28;3.92;;;;;;;13.84;74.79;100786.13;5089194;28;20051;-83
2023/12/02 03:34:55;;;;;;;6.75;4.22;;;;;;;13.55;75.13;100745.59;5083130;28;20119;-83
2023/12/02 03:37:20;;;;;;;6.72;3.90;;;;;;;13.55;75.13;100741.22;5090128;28;20107;-83
2023/12/02 03:39:46;;;;;;;6.40;4.15;;;;;;;13.81;74.87;100776.41;5069771;28;20047;-83
2023/12/02 03:42:12;;;;;;;8.40;4.22;;;;;;;13.81;74.97;100770.28;5090339;28;20027;-83
2023/12/02 03:44:37;;;;;;;4.95;3.95;;;;;;;13.66;74.95;100752.16;5076792;28;20038;-83
2023/12/02 03:47:03;;;;;;;7.07;4.00;;;;;;;13.78;74.86;100771.06;5064813;28;20050;-83
2023/12/02 03:49:29;;;;;;;6.40;4.00;;;;;;;13.82;75.13;100777.28;5080782;28;20025;-83
2023/12/02 03:51:54;;;;;;;5.85;4.30;;;;;;;13.72;75.15;100757.69;5085860;28;20028;-83
2023/12/02 03:54:21;;;;;;;4.90;3.42;;;;;;;13.81;75.28;100770.28;5103902;28;20127;-83
2023/12/02 03:56:46;;;;;;;;;;;;;;;13.85;75.07;100764.31;5070945;28;20032;-84
2023/12/02 03:59:12;;;;;;;5.63;3.80;;;;;;;13.29;75.29;100673.66;5095012;28;19923;-83
2023/12/02 04:01:38;;;;;;;5.63;3.85;;;;;;;13.80;75.43;100766.75;5082517;28;20052;-83
2023/12/02 04:04:04;;;;;;;6.72;3.85;;;;;;;13.54;75.33;100723.69;5080782;28;20032;-83
2023/12/02 04:06:30;;;;;;;6.80;3.88;;;;;;;13.32;75.42;100685.19;5069012;28;20039;-83
2023/12/02 04:08:56;;;;;;;6.32;4.10;;;;;;;13.23;75.24;100653.31;5093158;28;20028;-83
2023/12/02 04:11:22;;;;;;;6.28;4.18;;;;;;;13.43;75.37;100691.75;5084377;28;20028;-83
2023/12/02 04:13:48;;;;;;;;;;;;;;;13.89;75.09;100771.47;5084447;28;20028;-83
2023/12/02 04:16:25;;;;;;;6.10;4.05;;;;;;;13.62;75.26;100713.50;5088441;28;19934;-83
2023/12/02 04:18:50;;;;;;;6.68;4.07;;;;;;;13.21;75.42;100658.50;5082989;28;20027;-83
2023/12/02 04:21:16;;;;;;;5.15;3.65;;;;;;;13.38;75.28;100681.94;5092324;28;20035;-84
2023/12/02 04:23:41;;;;;;;7.28;4.00;;;;;;;13.57;75.35;100713.34;5083248;28;20066;-84
2023/12/02 04:26:12;;;;;;;6.35;3.63;;;;;;;13.28;75.28;100661.38;5100575;28;20040;-85
2023/12/02 04:28:38;;;;;;;8.02;4.18;;;;;;;13.60;74.86;100705.56;5084662;28;20066;-83
2023/12/02 04:31:03;;;;;;;5.13;3.50;;;;;;;13.81;74.99;100749.28;5080092;28;20028;-83
2023/12/02 04:33:29;;;;;;;5.57;3.83;;;;;;;13.69;75.17;100741.78;5085959;28;20028;-83
2023/12/02 04:35:54;;;;;;;7.05;3.70;;;;;;;13.84;75.28;100754.63;5088262;28;20534;-83
2023/12/02 04:38:20;;;;;;;5.95;3.67;;;;;;;13.75;75.10;100734.16;5092781;28;20035;-83
2023/12/02 04:40:46;;;;;;;6.68;3.75;;;;;;;13.83;75.21;100751.13;5091391;28;20032;-83
2023/12/02 04:43:12;;;;;;;6.72;3.63;;;;;;;13.58;75.01;100709.88;5080116;28;20739;-84
2023/12/02 04:45:37;;;;;;;6.22;3.50;;;;;;;13.73;74.66;100733.19;5088557;28;20115;-84
2023/12/02 04:48:03;;;;;;;5.10;3.50;;;;;;;13.71;75.02;100727.00;5088942;28;20070;-83
2023/12/02 04:50:29;;;;;;;7.05;3.92;;;;;;;13.91;74.89;100764.56;5079069;28;20028;-83
2023/12/02 04:52:54;;;;;;;5.30;3.70;;;;;;;13.86;74.58;100747.72;5067828;28;20039;-83
2023/12/02 04:55:20;;;;;;;6.78;3.67;;;;;;;13.92;74.77;100768.06;5083938;28;20123;-82
2023/12/02 04:57:46;;;;;;;5.85;3.85;;;;;;;13.91;74.94;100759.31;5082035;28;20489;-83
2023/12/02 05:00:16;;;;;;;7.32;4.25;;;;;;;13.74;74.34;100731.50;5094791;28;20032;-82
2023/12/02 05:02:42;;;;;;;7.20;3.80;;;;;;;13.94;74.44;100771.66;5072397;28;20073;-83
2023/12/02 05:05:09;;;;;;;7.28;4.47;;;;;;;13.95;74.85;100773.44;5077799;28;20127;-82
2023/12/02 05:07:36;;;;;;;5.32;3.65;;;;;;;13.96;74.46;100765.63;5069132;28;20846;-82
2023/12/02 05:10:04;;;;;;;7.13;3.90;;;;;;;13.94;74.58;100758.53;5101822;28;20020;-82
2023/12/02 05:12:31;;;;;;;7.40;3.80;;;;;;;13.92;74.59;100765.44;5074926;28;20028;-83
2023/12/02 05:14:57;;;;;;;5.70;3.50;;;;;;;13.96;74.44;100755.13;5056758;28;20070;-83
2023/12/02 05:17:23;;;;;;;7.03;3.50;;;;;;;13.92;74.54;100742.72;5100262;27;20031;-83
2023/12/02 05:19:49;;;;;;;5.50;3.53;;;;;;;13.93;74.80;100754.13;5092415;28;20481;-83
2023/12/02 05:22:15;;;;;;;6.95;3.63;;;;;;;13.74;74.71;100719.25;5083712;28;20024;-83
2023/12/02 05:24:41;;;;;;;;;;;;;;;13.99;74.52;100755.28;5087792;28;20067;-83
2023/12/02 05:27:06;;;;;;;4.35;2.97;;;;;;;13.83;74.44;100729.25;5095818;28;20365;-84
2023/12/02 05:29:32;;;;;;;5.82;3.70;;;;;;;13.86;74.44;100739.84;5076997;28;20039;-83
2023/12/02 05:31:58;;;;;;;5.20;3.50;;;;;;;13.94;74.42;100764.69;5085777;28;20038;-83
2023/12/02 05:34:28;;;;;;;6.85;3.45;;;;;;;13.96;74.40;100759.50;5068752;28;20193;-83
2023/12/02 05:36:54;;;;;;;7.10;3.53;;;;;;;13.85;74.15;100746.81;5076224;28;20044;-83
2023/12/02 05:39:20;;;;;;;5.25;3.35;;;;;;;13.88;74.27;100740.78;5082014;28;20156;-83
2023/12/02 05:41:46;;;;;;;4.70;3.45;;;;;;;13.78;74.33;100715.94;5095200;28;20039;-84
2023/12/02 05:44:11;;;;;;;3.90;3.00;;;;;;;13.72;74.11;100704.28;5080057;28;20031;-83
2023/12/02 05:46:38;;;;;;;4.22;3.30;;;;;;;13.98;74.43;100747.31;5094726;28;20039;-84
2023/12/02 05:49:03;;;;;;;;;;;;;;;13.98;74.41;100740.34;5094234;28;20033;-84
2023/12/02 05:51:29;;;;;;;5.07;3.22;;;;;;;13.74;74.24;100708.78;5082271;28;19922;-83
2023/12/02 05:53:54;;;;;;;6.30;3.63;;;;;;;13.89;74.59;100739.09;5082472;28;20028;-83
2023/12/02 05:56:21;;;;;;;5.78;3.58;;;;;;;13.89;74.39;100733.84;5089031;28;20060;-84
2023/12/02 05:58:46;;;;;;;;;;;;;;;14.02;74.32;100742.25;5090579;28;20453;-84
2023/12/02 06:01:19;;;;;;;7.15;3.60;;;;;;;13.99;74.28;100759.59;5084303;28;20003;-83
2023/12/02 06:03:45;;;;;;;4.97;3.55;;;;;;;13.82;74.60;100733.59;5080479;28;20036;-83
2023/12/02 06:06:11;;;;;;;4.25;3.00;;;;;;;13.99;74.45;100759.59;5092789;28;20525;-84
2023/12/02 06:08:37;;;;;;;;;;;;;;;14.04;74.50;100752.81;5075255;28;20482;-82
2023/12/02 06:11:02;;;;;;;3.97;3.50;;;;;;;14.02;74.63;100751.88;5084326;28;19939;-82
2023/12/02 06:13:29;;;;;;;5.47;3.45;;;;;;;14.05;74.42;100738.84;5086968;28;20024;-82
2023/12/02 06:15:55;;;;;;;4.80;3.47;;;;;;;14.02;74.29;100738.75;5097043;28;20044;-82
2023/12/02 06:18:20;;;;;;;6.38;3.42;;;;;;;14.00;74.47;100735.16;5091460;28;20084;-81
2023/12/02 06:20:46;;;;;;;8.82;4.30;;;;;;;14.00;74.65;100743.91;5086931;28;20036;-82
2023/12/02 06:23:12;;;;;;;7.65;4.70;;;;;;;14.03;74.67;100754.56;5088403;28;20024;-82
2023/12/02 06:25:37;;;;;;;6.82;4.28;;;;;;;13.88;74.72;100719.81;5086150;28;20028;-83
2023/12/02 06:28:04;;;;;;;8.73;4.72;;;;;;;13.99;74.74;100730.72;5092479;28;20058;-82
2023/12/02 06:30:29;;;;;;;;;;;;;;;14.07;75.06;100746.78;5080444;28;20031;-82
2023/12/02 06:32:55;;;;;;;7.78;4.68;;;;;;;14.02;74.91;100739.63;5083290;28;20549;-84
2023/12/02 06:35:22;;;;;;;6.03;4.00;;;;;;;14.07;74.65;100739.81;5092076;28;20024;-83
2023/12/02 06:37:48;;;;;;;8.10;4.35;;;;;;;13.83;75.09;100698.63;5080738;28;20028;-82
2023/12/02 06:40:13;;;;;;;8.93;4.47;;;;;;;14.01;75.18;100718.56;5096703;27;20033;-82
2023/12/02 06:42:39;;;;;;;10.98;5.50;;;;;;;14.10;75.18;100737.31;5082065;28;20036;-82
2023/12/02 06:45:05;;;;;;;10.75;5.18;;;;;;;14.03;75.58;100732.63;5096153;28;20094;-82
2023/12/02 06:47:31;;;;;;;10.18;4.82;;;;;;;13.89;75.29;100702.34;5083504;28;20027;-82
2023/12/02 06:49:57;;;;;;;11.50;5.57;;;;;;;14.13;75.38;100737.41;5084519;28;20397;-83
2023/12/02 06:52:22;;;;;;;9.73;5.05;;;;;;;14.11;75.54;100731.22;5089212;28;20032;-83
2023/12/02 06:54:48;;;;;;;10.70;5.40;;;;;;;14.10;75.67;100712.78;5084963;28;20035;-82
2023/12/02 06:57:14;;;;;;;9.88;5.55;;;;;;;13.90;75.40;100668.25;5076466;28;20068;-83
2023/12/02 06:59:39;;;;;;;9.40;5.18;;;;;;;14.15;75.19;100712.09;5087871;28;20060;-82
2023/12/02 07:02:05;;;;;;;13.55;6.45;;;;;;;14.12;75.38;100703.22;5089461;28;20040;-82
2023/12/02 07:04:32;;;;;;;17.40;7.45;;;;;;;14.11;75.92;100709.31;5084131;28;20034;-83
2023/12/02 07:06:57;;;;;;;14.32;8.13;;;;;;;14.15;75.73;100703.34;5090710;28;20028;-82
2023/12/02 07:09:23;;;;;;;19.30;10.02;;;;;;;13.99;75.94;100689.63;5097754;27;20021;-82
2023/12/02 07:11:49;;;;;;;14.25;9.02;;;;;;;14.06;75.46;100717.03;5078230;28;20136;-83
2023/12/02 07:14:14;;;;;;;14.30;8.55;;;;;;;14.07;75.32;100708.28;5077781;28;20559;-83
2023/12/02 07:16:40;;;;;;;15.18;8.48;;;;;;;14.08;75.20;100731.09;5085354;28;20048;-82
2023/12/02 07:19:06;;;;;;;21.63;11.60;;;;;;;14.05;75.44;100725.72;5087492;28;20032;-82
2023/12/02 07:21:32;;;;;;;15.93;9.15;;;;;;;14.05;75.19;100738.84;5084486;28;20024;-82
2023/12/02 07:23:57;;;;;;;15.27;8.18;;;;;;;14.00;75.41;100736.03;5087152;28;20027;-82
2023/12/02 07:26:23;;;;;;;13.23;8.13;;;;;;;13.99;74.91;100735.97;5094036;28;20030;-83
2023/12/02 07:28:48;;;;;;;13.13;7.40;;;;;;;14.03;74.92;100737.88;5082662;28;20037;-83
2023/12/02 07:31:15;;;;;;;12.57;7.38;;;;;;;14.05;75.27;100744.09;5077658;28;20056;-83
2023/12/02 07:33:41;;;;;;;13.70;7.50;;;;;;;14.00;75.56;100740.41;5112072;27;20028;-83
2023/12/02 07:36:07;;;;;;;14.63;7.47;;;;;;;14.01;75.39;100755.31;5082857;28;20417;-83
2023/12/02 07:38:33;;;;;;;14.55;7.47;;;;;;;14.10;74.75;100754.81;5085135;28;20035;-82
2023/12/02 07:40:58;;;;;;;11.23;6.50;;;;;;;13.99;74.97;100736.91;5084144;28;20409;-84
2023/12/02 07:43:24;;;;;;;12.38;6.05;;;;;;;14.10;74.49;100750.44;5089508;28;20028;-83
2023/12/02 07:45:50;;;;;;;8.85;5.70;;;;;;;14.08;74.23;100735.47;5121606;27;20584;-85
2023/12/02 07:48:16;;;;;;;11.65;6.07;;;;;;;14.22;75.37;100732.53;5090158;28;20673;-83
2023/12/02 07:50:42;;;;;;;17.40;6.18;;;;;;;14.15;74.80;100713.84;5076876;28;20029;-83
2023/12/02 07:53:07;;;;;;;12.77;5.53;;;;;;;14.18;74.84;100734.97;5093368;28;20055;-82
2023/12/02 07:55:33;;;;;;;10.25;5.90;;;;;;;14.12;74.90;100733.03;5087848;28;20037;-82
2023/12/02 07:57:59;;;;;;;11.23;5.80;;;;;;;14.09;74.51;100705.72;5080965;28;20035;-83
2023/12/02 08:00:25;;;;;;;11.68;5.85;;;;;;;14.24;74.73;100745.72;5084369;28;20035;-83
2023/12/02 08:02:50;;;;;;;11.07;5.32;;;;;;;14.21;75.07;100736.00;5084336;28;20066;-83
2023/12/02 08:05:17;;;;;;;15.00;5.30;;;;;;;14.17;75.32;100726.19;5083165;28;20028;-82
2023/12/02 08:07:46;;;;;;;11.77;5.25;;;;;;;14.36;75.29;100745.31;5076789;28;20517;-85
2023/12/02 08:10:12;;;;;;;10.95;5.15;;;;;;;14.37;75.44;100760.22;5066826;28;20617;-83
2023/12/02 08:12:38;;;;;;;13.65;5.57;;;;;;;14.34;76.20;100752.22;5084983;28;20052;-83
2023/12/02 08:15:05;;;;;;;12.13;5.50;;;;;;;14.14;77.14;100733.06;5090929;28;20063;-83
2023/12/02 08:17:30;;;;;;;9.05;5.47;;;;;;;14.28;76.78;100745.00;5100531;27;20024;-82
2023/12/02 08:19:56;;;;;;;10.15;5.72;;;;;;;14.37;77.25;100754.97;5090372;28;20029;-82
2023/12/02 08:22:24;;;;;;;11.90;5.72;;;;;;;14.25;77.59;100729.13;5074369;28;20028;-82
2023/12/02 08:24:51;;;;;;;12.73;6.00;;;;;;;14.35;77.80;100720.78;5091476;28;20028;-83
2023/12/02 08:27:17;;;;;;;11.88;6.20;;;;;;;14.32;77.65;100732.88;5080160;28;20051;-82
2023/12/02 08:29:43;;;;;;;11.77;5.70;;;;;;;14.34;77.46;100728.59;5084946;28;20021;-84
2023/12/02 08:32:08;;;;;;;15.95;6.22;;;;;;;14.38;78.16;100752.41;5086394;28;20059;-83
2023/12/02 08:34:34;;;;;;;8.60;5.40;;;;;;;14.34;77.94;100725.97;5085671;28;20396;-83
2023/12/02 08:37:00;;;;;;;14.20;5.43;;;;;;;14.51;77.89;100742.34;5090542;28;20028;-83
2023/12/02 08:39:26;;;;;;;9.43;5.22;;;;;;;14.40;78.39;100726.19;5081712;28;20046;-82
2023/12/02 08:41:51;;;;;;;;;;;;;;;14.50;77.76;100725.72;5085296;28;20028;-82
2023/12/02 08:44:17;;;;;;;11.25;5.30;;;;;;;14.44;77.94;100720.22;5086913;28;19977;-84
2023/12/02 08:46:43;;;;;;;13.07;5.82;;;;;;;14.42;77.77;100717.53;5107423;27;20024;-83
2023/12/02 08:49:08;;;;;;;12.18;5.07;;;;;;;14.40;77.57;100705.19;5089842;28;20040;-84
2023/12/02 08:51:35;;;;;;;13.93;5.47;;;;;;;14.58;77.96;100737.44;5092338;28;20055;-84
2023/12/02 08:54:01;;;;;;;9.05;5.28;;;;;;;14.44;77.66;100707.97;5092342;28;20093;-82
2023/12/02 08:56:27;;;;;;;9.35;5.05;;;;;;;14.58;77.79;100729.56;5092937;28;20059;-83
2023/12/02 08:58:54;;;;;;;11.02;4.88;;;;;;;14.63;77.75;100724.47;5083244;28;20016;-83
2023/12/02 09:01:23;;;;;;;10.82;5.72;;;;;;;14.63;78.38;100734.97;5096742;28;20474;-82
2023/12/02 09:03:49;;;;;;;6.90;4.93;;;;;;;14.62;78.41;100730.53;5073302;28;20556;-82
2023/12/02 09:06:14;;;;;;;;;;;;;;;14.64;78.57;100736.75;5073805;28;20028;-82
2023/12/02 09:08:40;;;;;;;10.50;5.28;;;;;;;14.53;78.74;100712.66;5102198;28;19961;-83
2023/12/02 09:11:06;;;;;;;12.25;5.35;;;;;;;14.65;78.82;100731.56;5080450;28;20042;-82
2023/12/02 09:13:37;;;;;;;10.48;5.10;;;;;;;14.66;79.05;100707.03;5091079;28;20028;-83
2023/12/02 09:16:03;;;;;;;11.13;4.95;;;;;;;14.59;79.03;100676.13;5105393;28;20072;-84
2023/12/02 09:18:36;;;;;;;11.77;4.85;;;;;;;14.63;79.66;100698.19;5087809;28;20032;-83
2023/12/02 09:21:13;;;;;;;11.57;4.85;;;;;;;14.68;79.40;100699.22;5085618;28;20421;-85
2023/12/02 09:23:39;;;;;;;10.57;4.82;;;;;;;14.69;79.68;100690.53;5089353;28;20031;-84
2023/12/02 09:26:26;;;;;;;16.98;4.65;;;;;;;14.58;80.46;100673.44;5093921;28;20408;-84
2023/12/02 09:28:52;;;;;;;11.48;4.68;;;;;;;14.62;80.49;100668.34;5077802;28;20036;-84
2023/12/02 09:31:18;;;;;;;12.15;4.40;;;;;;;14.68;79.92;100670.31;5082503;28;20112;-84
2023/12/02 09:33:45;;;;;;;9.18;4.05;;;;;;;14.71;80.44;100672.16;5094433;28;20048;-82
2023/12/02 09:36:34;;;;;;;10.70;4.13;;;;;;;14.73;80.29;100673.09;5088470;28;20039;-82
2023/12/02 09:39:09;;;;;;;11.07;4.32;;;;;;;14.78;80.89;100664.53;5069744;28;20044;-82
2023/12/02 09:41:50;;;;;;;10.40;4.32;;;;;;;14.83;80.40;100654.19;5079244;28;20036;-82
2023/12/02 09:44:27;;;;;;;11.43;4.80;;;;;;;14.77;81.10;100649.59;5090531;28;20080;-82
2023/12/02 09:46:55;;;;;;;;;;;;;;;14.81;81.43;100648.88;5074182;28;20497;-82
2023/12/02 09:49:38;;;;;;;12.32;4.05;;;;;;;14.80;80.83;100630.44;5081053;28;19912;-82
2023/12/02 09:52:24;;;;;;;12.68;4.47;;;;;;;14.75;81.23;100630.28;5091952;28;20027;-81
2023/12/02 09:55:04;;;;;;;12.57;4.30;;;;;;;14.89;80.94;100640.38;5090079;28;20058;-81
2023/12/02 09:57:33;;;;;;;13.48;4.53;;;;;;;14.89;80.23;100635.13;5085935;28;20270;-83
2023/12/02 10:00:02;;;;;;;11.52;4.60;;;;;;;14.90;81.10;100640.44;5088389;28;20496;-82
2023/12/02 10:03:02;;;;;;;11.43;4.40;;;;;;;14.89;80.98;100650.88;5089075;28;20024;-82
2023/12/02 10:05:33;;;;;;;13.75;4.50;;;;;;;14.89;81.37;100645.63;5094270;27;20028;-82
2023/12/02 10:08:26;;;;;;;12.90;4.20;;;;;;;14.84;81.23;100648.09;5084045;28;20451;-83
2023/12/02 10:11:04;;;;;;;11.70;4.05;;;;;;;14.84;81.05;100637.59;5081283;28;20470;-83
2023/12/02 10:13:44;;;;;;;9.23;4.00;;;;;;;14.95;80.07;100630.06;5103959;28;20485;-83
2023/12/02 10:16:15;;;;;;;13.45;4.75;;;;;;;14.96;80.99;100630.09;5087418;28;20606;-83
2023/12/02 10:18:47;;;;;;;14.15;4.97;;;;;;;14.89;81.06;100609.72;5080243;28;20501;-83
2023/12/02 10:21:17;;;;;;;10.38;3.92;;;;;;;14.95;81.01;100620.44;5082201;28;20032;-83
2023/12/02 10:23:51;;;;;;;9.50;3.72;;;;;;;14.96;81.31;100627.47;5094054;28;20020;-83
2023/12/02 10:26:24;;;;;;;14.68;4.25;;;;;;;14.98;81.40;100610.00;5080494;28;20103;-83
2023/12/02 10:29:04;;;;;;;14.20;4.20;;;;;;;14.92;81.02;100599.31;5074687;28;20039;-83
2023/12/02 10:31:31;;;;;;;11.02;4.38;;;;;;;15.04;81.51;100609.31;5091767;28;20050;-83
2023/12/02 10:34:23;;;;;;;14.90;4.22;;;;;;;15.04;81.35;100601.44;5086655;28;20029;-83
2023/12/02 10:36:52;;;;;;;15.52;4.28;;;;;;;15.05;81.27;100604.13;5096835;28;20031;-83
2023/12/02 10:39:39;;;;;;;11.80;3.95;;;;;;;14.95;81.69;100594.16;5098800;28;20024;-83
2023/12/02 10:42:05;;;;;;;14.65;4.35;;;;;;;15.01;81.60;100604.88;5079039;28;20057;-83
2023/12/02 10:44:32;;;;;;;19.00;4.93;;;;;;;15.01;81.85;100604.88;5089814;28;20036;-83
2023/12/02 10:47:03;;;;;;;14.10;4.10;;;;;;;15.01;82.03;100598.72;5079183;28;20047;-83
2023/12/02 10:49:29;;;;;;;12.85;4.40;;;;;;;15.19;81.21;100611.56;5079263;28;20073;-83
2023/12/02 10:51:55;;;;;;;11.85;4.28;;;;;;;15.09;81.36;100589.34;5072995;28;20031;-83
2023/12/02 10:54:26;;;;;;;14.40;3.97;;;;;;;15.13;81.14;100598.22;5094640;28;20032;-84
2023/12/02 10:57:05;;;;;;;10.10;4.10;;;;;;;15.01;81.28;100568.06;5091393;28;20034;-84
2023/12/02 10:59:34;;;;;;;11.55;4.35;;;;;;;15.21;81.26;100602.88;5090225;28;20602;-84
2023/12/02 11:02:31;;;;;;;12.00;4.10;;;;;;;15.17;81.14;100587.84;5091903;28;20505;-83
2023/12/02 11:05:28;;;;;;;12.73;4.13;;;;;;;15.27;80.58;100591.66;5133195;27;20035;-83
2023/12/02 11:08:07;;;;;;;9.45;3.75;;;;;;;15.20;81.37;100587.06;5095643;28;20555;-83
2023/12/02 11:10:35;;;;;;;13.98;3.92;;;;;;;15.06;81.49;100561.19;5088614;28;20086;-83
2023/12/02 11:13:12;;;;;;;11.80;4.15;;;;;;;15.12;81.43;100564.88;5078770;28;20024;-83
2023/12/02 11:15:57;;;;;;;;;;;;;;;15.24;81.23;100594.22;5105299;28;20039;-83
2023/12/02 11:18:49;;;;;;;11.43;3.90;;;;;;;15.25;81.59;100578.47;5077275;28;19919;-83
2023/12/02 11:21:28;;;;;;;14.20;3.83;;;;;;;15.27;80.73;100560.97;5085426;28;20452;-83
2023/12/02 11:24:06;;;;;;;17.55;4.30;;;;;;;15.27;81.41;100552.22;5079363;28;20053;-83
2023/12/02 11:26:54;;;;;;;10.80;3.72;;;;;;;15.27;81.29;100554.84;5084724;28;20036;-83
2023/12/02 11:29:26;;;;;;;11.80;4.18;;;;;;;15.30;81.25;100564.56;5087851;28;20412;-83